^^
Saratoga-Weather Station Historical Data
Daily Summary for January 22, 2021 Units:  Both    English   Metric
Daily Weekly Monthly Yearly Custom
  High: Low: Average:
Temperature: 51.1 °F /  10.6 °C 35.4 °F /  1.9 °C 41.4 °F /  5.2 °C
Dew Point: 45.7 °F /  7.6 °C 33.8 °F /  1 °C 38.8 °F /  3.8 °C
Humidity: 95% 78% 91%
Wind Speed: 14.1mph /  22.7km/h - 2.5mph /  4.1km/h
Wind Gust: 20mph /  32.2km/h - -
Wind- - SW
Pressure: 29.5 in /  998.3 hPa 29.2 in /  989.2 hPa -
Precipitation: 0.48 in /  12.2 mm    
Historical Graphs
 
 
Tabular Data for January 22, 2021
Time Temperature Dew Point Pressure Wind Wind Speed Wind Gust Humidity Rainfall Rate (Hourly) solar
00:04 51.1 °F /  10.6 °C 44.4 °F /  6.9 °C 29.2in /  989.8hPa ENE 4mph /  6.4km/h 6mph /  9.7km/h 78% 0in /  0.0mm 0 W/m2
00:09 51.1 °F /  10.6 °C 44.4 °F /  6.9 °C 29.2in /  989.5hPa NW 4mph /  6.4km/h 7mph /  11.3km/h 78% 0in /  0.0mm 0 W/m2
00:14 51.1 °F /  10.6 °C 44.4 °F /  6.9 °C 29.2in /  989.5hPa WNW 6.9mph /  11.1km/h 14mph /  22.5km/h 78% 0in /  0.0mm 0 W/m2
00:19 50.9 °F /  10.5 °C 44.6 °F /  7 °C 29.2in /  989.5hPa WNW 4mph /  6.4km/h 14mph /  22.5km/h 79% 0in /  0.0mm 0 W/m2
00:24 50.9 °F /  10.5 °C 44.2 °F /  6.8 °C 29.2in /  989.5hPa North 6mph /  9.7km/h 14mph /  22.5km/h 78% 0in /  0.0mm 0 W/m2
00:29 50.9 °F /  10.5 °C 44.6 °F /  7 °C 29.2in /  989.5hPa North 4mph /  6.4km/h 10mph /  16.1km/h 79% 0in /  0.0mm 0 W/m2
00:34 50.7 °F /  10.4 °C 44.8 °F /  7.1 °C 29.2in /  989.8hPa North 0.9mph /  1.4km/h 6mph /  9.7km/h 80% 0in /  0.0mm 0 W/m2
00:39 50.4 °F /  10.2 °C 44.8 °F /  7.1 °C 29.2in /  989.5hPa NNE 4.9mph /  7.9km/h 16mph /  25.7km/h 81% 0in /  0.0mm 0 W/m2
00:44 50.2 °F /  10.1 °C 44.6 °F /  7 °C 29.2in /  989.5hPa West 10.1mph /  16.3km/h 10mph /  16.1km/h 81% 0in /  0.0mm 0 W/m2
00:49 50.2 °F /  10.1 °C 44.2 °F /  6.8 °C 29.2in /  989.5hPa WNW 2.9mph /  4.7km/h 8mph /  12.9km/h 80% 0in /  0.0mm 0 W/m2
00:54 50.4 °F /  10.2 °C 44.1 °F /  6.7 °C 29.2in /  989.5hPa East 2mph /  3.2km/h 10mph /  16.1km/h 79% 0in /  0.0mm 0 W/m2
00:59 50.5 °F /  10.3 °C 44.2 °F /  6.8 °C 29.2in /  989.2hPa NE 10.1mph /  16.3km/h 11mph /  17.7km/h 79% 0in /  0.0mm 0 W/m2
01:04 50.7 °F /  10.4 °C 44.1 °F /  6.7 °C 29.2in /  989.5hPa NW 2.9mph /  4.7km/h 10mph /  16.1km/h 78% 0in /  0.0mm 0 W/m2
01:09 50.7 °F /  10.4 °C 44.4 °F /  6.9 °C 29.2in /  989.5hPa South 6.9mph /  11.1km/h 7mph /  11.3km/h 79% 0in /  0.0mm 0 W/m2
01:14 50.5 °F /  10.3 °C 44.6 °F /  7 °C 29.2in /  989.5hPa SSE 2mph /  3.2km/h 17mph /  27.4km/h 80% 0.01in /  0.2mm 0 W/m2
01:19 50.2 °F /  10.1 °C 45 °F /  7.2 °C 29.2in /  989.5hPa WNW 4.9mph /  7.9km/h 10mph /  16.1km/h 82% 0.01in /  0.2mm 0 W/m2
01:24 49.6 °F /  9.8 °C 44.8 °F /  7.1 °C 29.2in /  989.5hPa WNW 2.9mph /  4.7km/h 17mph /  27.4km/h 83% 0.01in /  0.2mm 0 W/m2
01:29 49.5 °F /  9.7 °C 44.8 °F /  7.1 °C 29.2in /  989.5hPa WSW 2mph /  3.2km/h 9mph /  14.5km/h 84% 0.01in /  0.2mm 0 W/m2
01:34 49.3 °F /  9.6 °C 45 °F /  7.2 °C 29.2in /  989.5hPa Calm   7mph /  11.3km/h 85% 0.01in /  0.2mm 0 W/m2
01:39 48.9 °F /  9.4 °C 45 °F /  7.2 °C 29.2in /  989.2hPa NE 4.9mph /  7.9km/h 10mph /  16.1km/h 86% 0.01in /  0.2mm 0 W/m2
01:44 48.7 °F /  9.3 °C 45 °F /  7.2 °C 29.2in /  989.5hPa WSW 6.9mph /  11.1km/h 11mph /  17.7km/h 87% 0.01in /  0.2mm 0 W/m2
01:49 48.6 °F /  9.2 °C 45.1 °F /  7.3 °C 29.2in /  989.5hPa West 2.9mph /  4.7km/h 12mph /  19.3km/h 88% 0.01in /  0.2mm 0 W/m2
01:54 48.6 °F /  9.2 °C 45.1 °F /  7.3 °C 29.2in /  989.2hPa NNW 4mph /  6.4km/h 15mph /  24.1km/h 88% 0.01in /  0.2mm 0 W/m2
01:59 48.4 °F /  9.1 °C 45.3 °F /  7.4 °C 29.2in /  989.5hPa SSW 4mph /  6.4km/h 11mph /  17.7km/h 89% 0.01in /  0.2mm 0 W/m2
02:04 48.4 °F /  9.1 °C 45.3 °F /  7.4 °C 29.2in /  989.5hPa NNE 2.9mph /  4.7km/h 8mph /  12.9km/h 89% 0.01in /  0.2mm 0 W/m2
02:09 48.4 °F /  9.1 °C 45.3 °F /  7.4 °C 29.2in /  989.5hPa NE 6mph /  9.7km/h 8mph /  12.9km/h 89% 0.01in /  0.2mm 0 W/m2
02:14 48.4 °F /  9.1 °C 45.3 °F /  7.4 °C 29.2in /  989.5hPa NW 8.1mph /  13km/h 10mph /  16.1km/h 89% 0in /  0.0mm 0 W/m2
02:19 48.4 °F /  9.1 °C 45.3 °F /  7.4 °C 29.2in /  989.5hPa SE 2.9mph /  4.7km/h 7mph /  11.3km/h 89% 0in /  0.0mm 0 W/m2
02:24 48.4 °F /  9.1 °C 45.3 °F /  7.4 °C 29.2in /  989.5hPa WNW 4mph /  6.4km/h 11mph /  17.7km/h 89% 0in /  0.0mm 0 W/m2
02:29 48.2 °F /  9 °C 45.3 °F /  7.4 °C 29.2in /  989.5hPa NW 6mph /  9.7km/h 12mph /  19.3km/h 90% 0in /  0.0mm 0 W/m2
02:34 48 °F /  8.9 °C 45.1 °F /  7.3 °C 29.2in /  989.5hPa NNW 8.1mph /  13km/h 8mph /  12.9km/h 90% 0.01in /  0.2mm 0 W/m2
02:39 48 °F /  8.9 °C 45.5 °F /  7.5 °C 29.2in /  989.5hPa East 4mph /  6.4km/h 8mph /  12.9km/h 91% 0.01in /  0.2mm 0 W/m2
02:44 47.8 °F /  8.8 °C 45.3 °F /  7.4 °C 29.2in /  989.5hPa NW 4mph /  6.4km/h 9mph /  14.5km/h 91% 0.01in /  0.2mm 0 W/m2
02:49 47.8 °F /  8.8 °C 45.3 °F /  7.4 °C 29.2in /  989.5hPa NNW 2.9mph /  4.7km/h 5mph /  8km/h 91% 0.01in /  0.2mm 0 W/m2
02:54 47.8 °F /  8.8 °C 45.7 °F /  7.6 °C 29.2in /  989.8hPa NW 2mph /  3.2km/h 6mph /  9.7km/h 92% 0.01in /  0.2mm 0 W/m2
02:59 47.7 °F /  8.7 °C 45.5 °F /  7.5 °C 29.2in /  989.8hPa WNW 4mph /  6.4km/h 7mph /  11.3km/h 92% 0.01in /  0.2mm 0 W/m2
03:04 47.7 °F /  8.7 °C 45.5 °F /  7.5 °C 29.2in /  989.8hPa ENE 10.1mph /  16.3km/h 10mph /  16.1km/h 92% 0.01in /  0.2mm 0 W/m2
03:09 47.8 °F /  8.8 °C 45.7 °F /  7.6 °C 29.2in /  989.8hPa WNW 4mph /  6.4km/h 12mph /  19.3km/h 92% 0.02in /  0.5mm 0 W/m2
03:14 47.8 °F /  8.8 °C 45.7 °F /  7.6 °C 29.2in /  989.5hPa ENE 4mph /  6.4km/h 9mph /  14.5km/h 92% 0.02in /  0.5mm 0 W/m2
03:19 47.8 °F /  8.8 °C 45.3 °F /  7.4 °C 29.2in /  989.8hPa WNW 8.1mph /  13km/h 10mph /  16.1km/h 91% 0.02in /  0.5mm 0 W/m2
03:24 48 °F /  8.9 °C 45.5 °F /  7.5 °C 29.2in /  989.8hPa NW 8.9mph /  14.3km/h 13mph /  20.9km/h 91% 0.02in /  0.5mm 0 W/m2
03:29 48.2 °F /  9 °C 45.3 °F /  7.4 °C 29.2in /  989.8hPa West 6mph /  9.7km/h 20mph /  32.2km/h 90% 0.02in /  0.5mm 0 W/m2
03:34 48.4 °F /  9.1 °C 45.5 °F /  7.5 °C 29.2in /  989.8hPa NW 8.1mph /  13km/h 11mph /  17.7km/h 90% 0.01in /  0.2mm 0 W/m2
03:39 48.4 °F /  9.1 °C 45.3 °F /  7.4 °C 29.2in /  989.8hPa ENE 4mph /  6.4km/h 20mph /  32.2km/h 89% 0.01in /  0.2mm 0 W/m2
03:44 48.4 °F /  9.1 °C 45.3 °F /  7.4 °C 29.2in /  989.5hPa WNW 4.9mph /  7.9km/h 8mph /  12.9km/h 89% 0.01in /  0.2mm 0 W/m2
03:49 48.6 °F /  9.2 °C 45.1 °F /  7.3 °C 29.2in /  989.5hPa WNW 4.9mph /  7.9km/h 9mph /  14.5km/h 88% 0.01in /  0.2mm 0 W/m2
03:54 48.6 °F /  9.2 °C 45.1 °F /  7.3 °C 29.2in /  989.8hPa NNW 6mph /  9.7km/h 10mph /  16.1km/h 88% 0.01in /  0.2mm 0 W/m2
03:59 48.7 °F /  9.3 °C 45 °F /  7.2 °C 29.2in /  989.8hPa WSW 2.9mph /  4.7km/h 11mph /  17.7km/h 87% 0.01in /  0.2mm 0 W/m2
04:04 48.7 °F /  9.3 °C 45 °F /  7.2 °C 29.2in /  989.8hPa WNW 2.9mph /  4.7km/h 6mph /  9.7km/h 87% 0.01in /  0.2mm 0 W/m2
04:09 48.7 °F /  9.3 °C 45 °F /  7.2 °C 29.2in /  989.8hPa WNW 4.9mph /  7.9km/h 11mph /  17.7km/h 87% 0in /  0.0mm 0 W/m2
04:14 48.7 °F /  9.3 °C 45 °F /  7.2 °C 29.2in /  989.8hPa SW 6mph /  9.7km/h 16mph /  25.7km/h 87% 0in /  0.0mm 0 W/m2
04:19 48.7 °F /  9.3 °C 45 °F /  7.2 °C 29.2in /  989.8hPa NW 4.9mph /  7.9km/h 13mph /  20.9km/h 87% 0in /  0.0mm 0 W/m2
04:24 48.7 °F /  9.3 °C 45 °F /  7.2 °C 29.2in /  989.8hPa NW 2.9mph /  4.7km/h 16mph /  25.7km/h 87% 0in /  0.0mm 0 W/m2
04:29 48.6 °F /  9.2 °C 45.1 °F /  7.3 °C 29.2in /  989.8hPa WNW 2.9mph /  4.7km/h 12mph /  19.3km/h 88% 0in /  0.0mm 0 W/m2
04:34 48.6 °F /  9.2 °C 45.1 °F /  7.3 °C 29.2in /  989.8hPa WNW 2.9mph /  4.7km/h 11mph /  17.7km/h 88% 0in /  0.0mm 0 W/m2
04:39 48.4 °F /  9.1 °C 45.3 °F /  7.4 °C 29.2in /  989.8hPa ESE 2.9mph /  4.7km/h 12mph /  19.3km/h 89% 0in /  0.0mm 0 W/m2
04:44 48 °F /  8.9 °C 45 °F /  7.2 °C 29.2in /  989.5hPa NW 0.9mph /  1.4km/h 9mph /  14.5km/h 89% 0.01in /  0.2mm 0 W/m2
04:49 48 °F /  8.9 °C 45.1 °F /  7.3 °C 29.2in /  989.5hPa SSE 0.9mph /  1.4km/h 9mph /  14.5km/h 90% 0.01in /  0.2mm 0 W/m2
04:54 47.8 °F /  8.8 °C 45 °F /  7.2 °C 29.2in /  989.5hPa NNE 2mph /  3.2km/h 17mph /  27.4km/h 90% 0.02in /  0.5mm 0 W/m2
04:59 47.8 °F /  8.8 °C 45.3 °F /  7.4 °C 29.2in /  989.5hPa Calm   8mph /  12.9km/h 91% 0.02in /  0.5mm 0 W/m2
05:04 47.7 °F /  8.7 °C 45.1 °F /  7.3 °C 29.2in /  989.5hPa NNW 2mph /  3.2km/h 17mph /  27.4km/h 91% 0.02in /  0.5mm 0 W/m2
05:09 47.7 °F /  8.7 °C 45.5 °F /  7.5 °C 29.2in /  989.5hPa NW 4.9mph /  7.9km/h 10mph /  16.1km/h 92% 0.02in /  0.5mm 0 W/m2
05:14 47.5 °F /  8.6 °C 45.3 °F /  7.4 °C 29.2in /  989.5hPa North 4mph /  6.4km/h 7mph /  11.3km/h 92% 0.03in /  0.8mm 0 W/m2
05:19 47.5 °F /  8.6 °C 45.3 °F /  7.4 °C 29.2in /  989.5hPa North 4.9mph /  7.9km/h 5mph /  8km/h 92% 0.03in /  0.8mm 0 W/m2
05:24 47.5 °F /  8.6 °C 45.3 °F /  7.4 °C 29.2in /  989.8hPa West 6.9mph /  11.1km/h 10mph /  16.1km/h 92% 0.04in /  1.0mm 0 W/m2
05:29 47.3 °F /  8.5 °C 45.3 °F /  7.4 °C 29.2in /  990.2hPa WNW 14.1mph /  22.7km/h 14mph /  22.5km/h 93% 0.06in /  1.5mm 0 W/m2
05:34 45.7 °F /  7.6 °C 43 °F /  6.1 °C 29.2in /  990.2hPa WSW 6.9mph /  11.1km/h 12mph /  19.3km/h 90% 0.09in /  2.3mm 0 W/m2
05:39 44.1 °F /  6.7 °C 41.4 °F /  5.2 °C 29.3in /  990.5hPa WNW 14mph /  22.5km/h 14mph /  22.5km/h 90% 0.13in /  3.3mm 0 W/m2
05:44 43.2 °F /  6.2 °C 40.6 °F /  4.8 °C 29.3in /  990.5hPa WNW 4.9mph /  7.9km/h 10mph /  16.1km/h 91% 0.15in /  3.8mm 0 W/m2
05:49 42.6 °F /  5.9 °C 40.1 °F /  4.5 °C 29.3in /  990.5hPa WSW 6.9mph /  11.1km/h 11mph /  17.7km/h 91% 0.17in /  4.3mm 0 W/m2
05:54 42.4 °F /  5.8 °C 40.3 °F /  4.6 °C 29.3in /  990.5hPa West 11mph /  17.7km/h 11mph /  17.7km/h 92% 0.17in /  4.3mm 0 W/m2
05:59 42.3 °F /  5.7 °C 40.5 °F /  4.7 °C 29.2in /  990.2hPa West 2.9mph /  4.7km/h 11mph /  17.7km/h 93% 0.17in /  4.3mm 0 W/m2
06:04 42.1 °F /  5.6 °C 40.3 °F /  4.6 °C 29.2in /  990.2hPa West 4mph /  6.4km/h 6mph /  9.7km/h 93% 0.18in /  4.6mm 0 W/m2
06:09 42.1 °F /  5.6 °C 40.3 °F /  4.6 °C 29.2in /  990.2hPa West 2mph /  3.2km/h 11mph /  17.7km/h 93% 0.18in /  4.6mm 0 W/m2
06:14 42.1 °F /  5.6 °C 40.3 °F /  4.6 °C 29.2in /  990.2hPa WSW 6mph /  9.7km/h 6mph /  9.7km/h 93% 0.17in /  4.3mm 0 W/m2
06:19 41.9 °F /  5.5 °C 40.1 °F /  4.5 °C 29.2in /  990.2hPa WSW 4mph /  6.4km/h 6mph /  9.7km/h 93% 0.18in /  4.6mm 0 W/m2
06:24 41.7 °F /  5.4 °C 39.9 °F /  4.4 °C 29.2in /  990.2hPa West 4mph /  6.4km/h 6mph /  9.7km/h 93% 0.17in /  4.3mm 0 W/m2
06:29 41.7 °F /  5.4 °C 40.1 °F /  4.5 °C 29.2in /  990.2hPa West 2.9mph /  4.7km/h 5mph /  8km/h 94% 0.15in /  3.8mm 0 W/m2
06:34 41.9 °F /  5.5 °C 40.3 °F /  4.6 °C 29.2in /  990.2hPa WNW 0.9mph /  1.4km/h 4mph /  6.4km/h 94% 0.13in /  3.3mm 0 W/m2
06:39 41.9 °F /  5.5 °C 40.3 °F /  4.6 °C 29.2in /  990.2hPa WNW 2mph /  3.2km/h 4mph /  6.4km/h 94% 0.09in /  2.3mm 0 W/m2
06:44 41.9 °F /  5.5 °C 40.3 °F /  4.6 °C 29.3in /  990.5hPa WNW 2mph /  3.2km/h 3mph /  4.8km/h 94% 0.06in /  1.5mm 0 W/m2
06:49 41.9 °F /  5.5 °C 40.3 °F /  4.6 °C 29.3in /  990.5hPa West 8.1mph /  13km/h 8mph /  12.9km/h 94% 0.05in /  1.3mm 0 W/m2
06:54 41.5 °F /  5.3 °C 39.7 °F /  4.3 °C 29.3in /  990.5hPa WSW 2.9mph /  4.7km/h 10mph /  16.1km/h 93% 0.05in /  1.3mm 0 W/m2
07:00 41.4 °F /  5.2 °C 39.6 °F /  4.2 °C 29.3in /  990.9hPa WNW 2mph /  3.2km/h 6mph /  9.7km/h 93% 0.03in /  0.8mm 0 W/m2
07:05 41.4 °F /  5.2 °C 39.6 °F /  4.2 °C 29.3in /  990.9hPa WNW 2.9mph /  4.7km/h 10mph /  16.1km/h 93% 0.03in /  0.8mm 0 W/m2
07:10 41.4 °F /  5.2 °C 39.6 °F /  4.2 °C 29.3in /  990.9hPa NW 0.9mph /  1.4km/h 3mph /  4.8km/h 93% 0.03in /  0.8mm 0 W/m2
07:15 41.4 °F /  5.2 °C 39.6 °F /  4.2 °C 29.3in /  990.9hPa NW 0.9mph /  1.4km/h 6mph /  9.7km/h 93% 0.04in /  1.0mm 0 W/m2
07:20 41.2 °F /  5.1 °C 39.4 °F /  4.1 °C 29.3in /  990.9hPa WNW 2.9mph /  4.7km/h 6mph /  9.7km/h 93% 0.04in /  1.0mm 0 W/m2
07:25 41 °F /  5 °C 39.2 °F /  4 °C 29.3in /  990.9hPa West 2.9mph /  4.7km/h 4mph /  6.4km/h 93% 0.05in /  1.3mm 0 W/m2
07:30 40.8 °F /  4.9 °C 39 °F /  3.9 °C 29.3in /  990.9hPa NW 2.9mph /  4.7km/h 6mph /  9.7km/h 93% 0.05in /  1.3mm 0 W/m2
07:35 40.6 °F /  4.8 °C 39 °F /  3.9 °C 29.3in /  991.2hPa WSW 0.9mph /  1.4km/h 4mph /  6.4km/h 94% 0.05in /  1.3mm 0 W/m2
07:40 40.6 °F /  4.8 °C 38.8 °F /  3.8 °C 29.3in /  991.2hPa West 2.9mph /  4.7km/h 4mph /  6.4km/h 93% 0.05in /  1.3mm 0 W/m2
07:45 40.5 °F /  4.7 °C 38.7 °F /  3.7 °C 29.3in /  991.2hPa Calm   2mph /  3.2km/h 93% 0.05in /  1.3mm 0 W/m2
07:50 40.5 °F /  4.7 °C 38.7 °F /  3.7 °C 29.3in /  991.2hPa WSW 2.9mph /  4.7km/h 9mph /  14.5km/h 93% 0.06in /  1.5mm 0 W/m2
07:55 40.3 °F /  4.6 °C 38.1 °F /  3.4 °C 29.3in /  991.5hPa NNW 2mph /  3.2km/h 8mph /  12.9km/h 92% 0.05in /  1.3mm 0 W/m2
08:00 39.9 °F /  4.4 °C 37.8 °F /  3.2 °C 29.3in /  991.5hPa NNW 2.9mph /  4.7km/h 5mph /  8km/h 92% 0.06in /  1.5mm 0 W/m2
08:05 39.7 °F /  4.3 °C 37.6 °F /  3.1 °C 29.3in /  991.5hPa WNW 2mph /  3.2km/h 6mph /  9.7km/h 92% 0.07in /  1.8mm 0 W/m2
08:10 39.6 °F /  4.2 °C 37.4 °F /  3 °C 29.3in /  991.5hPa NW 0.9mph /  1.4km/h 7mph /  11.3km/h 92% 0.07in /  1.8mm 0 W/m2
08:15 39.4 °F /  4.1 °C 37.2 °F /  2.9 °C 29.3in /  991.9hPa NW 2mph /  3.2km/h 3mph /  4.8km/h 92% 0.08in /  2.0mm 0 W/m2
08:20 39 °F /  3.9 °C 36.9 °F /  2.7 °C 29.3in /  992.2hPa North 8.1mph /  13km/h 8mph /  12.9km/h 92% 0.08in /  2.0mm 0 W/m2
08:25 38.8 °F /  3.8 °C 36.7 °F /  2.6 °C 29.3in /  992.2hPa NW 2mph /  3.2km/h 4mph /  6.4km/h 92% 0.08in /  2.0mm 0 W/m2
08:30 38.7 °F /  3.7 °C 36.5 °F /  2.5 °C 29.3in /  992.5hPa West 2mph /  3.2km/h 4mph /  6.4km/h 92% 0.09in /  2.3mm 0 W/m2
08:35 38.1 °F /  3.4 °C 36 °F /  2.2 °C 29.3in /  992.5hPa North 4.9mph /  7.9km/h 5mph /  8km/h 92% 0.09in /  2.3mm 0 W/m2
08:40 37.8 °F /  3.2 °C 35.6 °F /  2 °C 29.3in /  992.5hPa NW 2mph /  3.2km/h 2mph /  3.2km/h 92% 0.09in /  2.3mm 0 W/m2
08:45 37.6 °F /  3.1 °C 35.4 °F /  1.9 °C 29.3in /  992.5hPa NW 5mph /  8km/h 5mph /  8km/h 92% 0.1in /  2.5mm 0 W/m2
08:50 37.2 °F /  2.9 °C 35.4 °F /  1.9 °C 29.3in /  992.5hPa Calm   2mph /  3.2km/h 93% 0.1in /  2.5mm 5 W/m2
08:55 37 °F /  2.8 °C 35.2 °F /  1.8 °C 29.3in /  992.5hPa West 2mph /  3.2km/h 4mph /  6.4km/h 93% 0.11in /  2.8mm 5 W/m2
09:00 36.9 °F /  2.7 °C 35.1 °F /  1.7 °C 29.3in /  992.5hPa WNW 0.9mph /  1.4km/h 3mph /  4.8km/h 93% 0.1in /  2.5mm 7 W/m2
09:05 36.5 °F /  2.5 °C 34.7 °F /  1.5 °C 29.3in /  992.9hPa WNW 0.9mph /  1.4km/h 4mph /  6.4km/h 93% 0.09in /  2.3mm 7 W/m2
09:10 36.3 °F /  2.4 °C 34.5 °F /  1.4 °C 29.3in /  992.9hPa Calm     93% 0.09in /  2.3mm 9 W/m2
09:15 36.1 °F /  2.3 °C 34.3 °F /  1.3 °C 29.3in /  992.9hPa NE 0.9mph /  1.4km/h 2mph /  3.2km/h 93% 0.09in /  2.3mm 9 W/m2
09:20 36.1 °F /  2.3 °C 34.3 °F /  1.3 °C 29.3in /  992.9hPa Calm   2mph /  3.2km/h 93% 0.08in /  2.0mm 12 W/m2
09:25 36 °F /  2.2 °C 34.3 °F /  1.3 °C 29.3in /  992.9hPa NE 0.9mph /  1.4km/h 1mph /  1.6km/h 94% 0.08in /  2.0mm 25 W/m2
09:30 35.8 °F /  2.1 °C 34.2 °F /  1.2 °C 29.3in /  993.2hPa ENE 0.9mph /  1.4km/h 2mph /  3.2km/h 94% 0.08in /  2.0mm 40 W/m2
09:35 35.8 °F /  2.1 °C 34.2 °F /  1.2 °C 29.3in /  993.2hPa Calm   1mph /  1.6km/h 94% 0.07in /  1.8mm 33 W/m2
09:40 35.6 °F /  2 °C 34 °F /  1.1 °C 29.3in /  993.2hPa Calm   2mph /  3.2km/h 94% 0.07in /  1.8mm 16 W/m2
09:45 35.4 °F /  1.9 °C 33.8 °F /  1 °C 29.3in /  993.6hPa Calm     94% 0.06in /  1.5mm 14 W/m2
09:50 35.4 °F /  1.9 °C 33.8 °F /  1 °C 29.3in /  993.6hPa Calm     94% 0.06in /  1.5mm 32 W/m2
09:55 35.4 °F /  1.9 °C 33.8 °F /  1 °C 29.3in /  993.6hPa East 0.9mph /  1.4km/h 2mph /  3.2km/h 94% 0.06in /  1.5mm 60 W/m2
10:00 35.4 °F /  1.9 °C 33.8 °F /  1 °C 29.3in /  993.6hPa Calm     94% 0.06in /  1.5mm 58 W/m2
10:05 35.6 °F /  2 °C 34 °F /  1.1 °C 29.3in /  993.6hPa Calm     94% 0.05in /  1.3mm 44 W/m2
10:10 35.8 °F /  2.1 °C 34.5 °F /  1.4 °C 29.3in /  993.6hPa Calm     95% 0.04in /  1.0mm 49 W/m2
10:15 35.8 °F /  2.1 °C 34.5 °F /  1.4 °C 29.4in /  993.9hPa Calm     95% 0.03in /  0.8mm 42 W/m2
10:20 36 °F /  2.2 °C 34.7 °F /  1.5 °C 29.3in /  993.6hPa Calm   1mph /  1.6km/h 95% 0.03in /  0.8mm 44 W/m2
10:25 36 °F /  2.2 °C 34.7 °F /  1.5 °C 29.3in /  993.6hPa Calm   1mph /  1.6km/h 95% 0.02in /  0.5mm 40 W/m2
10:30 36.1 °F /  2.3 °C 34.9 °F /  1.6 °C 29.4in /  993.9hPa East 0.9mph /  1.4km/h 1mph /  1.6km/h 95% 0.02in /  0.5mm 39 W/m2
10:35 36.1 °F /  2.3 °C 34.9 °F /  1.6 °C 29.4in /  993.9hPa Calm   1mph /  1.6km/h 95% 0.02in /  0.5mm 40 W/m2
10:40 36.3 °F /  2.4 °C 35.1 °F /  1.7 °C 29.4in /  993.9hPa Calm   1mph /  1.6km/h 95% 0.02in /  0.5mm 39 W/m2
10:45 36.3 °F /  2.4 °C 35.1 °F /  1.7 °C 29.4in /  993.9hPa Calm   3mph /  4.8km/h 95% 0.02in /  0.5mm 51 W/m2
10:50 36.5 °F /  2.5 °C 35.2 °F /  1.8 °C 29.4in /  994.2hPa NW 2mph /  3.2km/h 2mph /  3.2km/h 95% 0.02in /  0.5mm 54 W/m2
10:55 36.7 °F /  2.6 °C 35.4 °F /  1.9 °C 29.4in /  994.2hPa WNW 0.9mph /  1.4km/h 3mph /  4.8km/h 95% 0.01in /  0.2mm 56 W/m2
11:00 36.7 °F /  2.6 °C 35.4 °F /  1.9 °C 29.4in /  994.2hPa Calm     95% 0.01in /  0.2mm 62 W/m2
11:05 36.9 °F /  2.7 °C 35.6 °F /  2 °C 29.4in /  994.2hPa Calm     95% 0.01in /  0.2mm 63 W/m2
11:10 36.9 °F /  2.7 °C 35.6 °F /  2 °C 29.4in /  994.2hPa NE 0.9mph /  1.4km/h 2mph /  3.2km/h 95% 0.01in /  0.2mm 60 W/m2
11:15 36.9 °F /  2.7 °C 35.6 °F /  2 °C 29.4in /  994.2hPa Calm   1mph /  1.6km/h 95% 0.02in /  0.5mm 56 W/m2
11:20 37 °F /  2.8 °C 35.8 °F /  2.1 °C 29.4in /  994.2hPa NE 0.9mph /  1.4km/h 1mph /  1.6km/h 95% 0.02in /  0.5mm 70 W/m2
11:25 37 °F /  2.8 °C 35.8 °F /  2.1 °C 29.4in /  994.2hPa Calm     95% 0.02in /  0.5mm 91 W/m2
11:30 37 °F /  2.8 °C 35.8 °F /  2.1 °C 29.4in /  994.2hPa NE 0.9mph /  1.4km/h 1mph /  1.6km/h 95% 0.01in /  0.2mm 86 W/m2
11:35 37.2 °F /  2.9 °C 36 °F /  2.2 °C 29.4in /  994.2hPa Calm   1mph /  1.6km/h 95% 0.01in /  0.2mm 83 W/m2
11:40 37.4 °F /  3 °C 36.1 °F /  2.3 °C 29.4in /  994.2hPa ENE 0.9mph /  1.4km/h 2mph /  3.2km/h 95% 0.01in /  0.2mm 74 W/m2
11:45 37.4 °F /  3 °C 36.1 °F /  2.3 °C 29.4in /  994.2hPa ENE 0.9mph /  1.4km/h 2mph /  3.2km/h 95% 0.01in /  0.2mm 76 W/m2
11:50 37.4 °F /  3 °C 36.1 °F /  2.3 °C 29.4in /  994.2hPa East 2mph /  3.2km/h 3mph /  4.8km/h 95% 0.01in /  0.2mm 91 W/m2
11:55 37.6 °F /  3.1 °C 36.3 °F /  2.4 °C 29.4in /  993.9hPa East 0.9mph /  1.4km/h 4mph /  6.4km/h 95% 0.01in /  0.2mm 98 W/m2
12:01 37.8 °F /  3.2 °C 36.5 °F /  2.5 °C 29.4in /  993.9hPa ESE 2mph /  3.2km/h 3mph /  4.8km/h 95% 0.01in /  0.2mm 100 W/m2
12:06 37.8 °F /  3.2 °C 36.5 °F /  2.5 °C 29.4in /  993.9hPa ESE 0.9mph /  1.4km/h 3mph /  4.8km/h 95% 0.01in /  0.2mm 116 W/m2
12:11 37.8 °F /  3.2 °C 36.5 °F /  2.5 °C 29.4in /  994.2hPa East 0.9mph /  1.4km/h 2mph /  3.2km/h 95% 0.01in /  0.2mm 111 W/m2
12:16 37.9 °F /  3.3 °C 36.7 °F /  2.6 °C 29.4in /  994.2hPa Calm   3mph /  4.8km/h 95% 0in /  0.0mm 113 W/m2
12:21 37.9 °F /  3.3 °C 36.7 °F /  2.6 °C 29.4in /  994.2hPa East 2mph /  3.2km/h 2mph /  3.2km/h 95% 0in /  0.0mm 121 W/m2
12:26 38.1 °F /  3.4 °C 36.9 °F /  2.7 °C 29.4in /  994.2hPa East 2mph /  3.2km/h 3mph /  4.8km/h 95% 0in /  0.0mm 134 W/m2
12:31 38.1 °F /  3.4 °C 36.9 °F /  2.7 °C 29.4in /  994.2hPa Calm   2mph /  3.2km/h 95% 0in /  0.0mm 123 W/m2
12:36 38.1 °F /  3.4 °C 36.9 °F /  2.7 °C 29.4in /  994.2hPa East 0.9mph /  1.4km/h 3mph /  4.8km/h 95% 0in /  0.0mm 121 W/m2
12:41 38.3 °F /  3.5 °C 37 °F /  2.8 °C 29.4in /  994.2hPa East 0.9mph /  1.4km/h 2mph /  3.2km/h 95% 0in /  0.0mm 146 W/m2
12:46 38.5 °F /  3.6 °C 37.2 °F /  2.9 °C 29.4in /  994.2hPa East 2mph /  3.2km/h 2mph /  3.2km/h 95% 0in /  0.0mm 155 W/m2
12:51 38.5 °F /  3.6 °C 36.9 °F /  2.7 °C 29.4in /  994.2hPa ENE 0.9mph /  1.4km/h 2mph /  3.2km/h 94% 0in /  0.0mm 156 W/m2
12:56 38.7 °F /  3.7 °C 37 °F /  2.8 °C 29.4in /  994.2hPa Calm   2mph /  3.2km/h 94% 0in /  0.0mm 181 W/m2
13:01 39 °F /  3.9 °C 37.4 °F /  3 °C 29.4in /  994.2hPa Calm   1mph /  1.6km/h 94% 0in /  0.0mm 186 W/m2
13:06 39.2 °F /  4 °C 37.6 °F /  3.1 °C 29.4in /  994.2hPa NNE 0.9mph /  1.4km/h 2mph /  3.2km/h 94% 0in /  0.0mm 141 W/m2
13:11 39.4 °F /  4.1 °C 37.6 °F /  3.1 °C 29.4in /  994.2hPa Calm   1mph /  1.6km/h 93% 0in /  0.0mm 167 W/m2
13:16 39.4 °F /  4.1 °C 37.6 °F /  3.1 °C 29.4in /  994.2hPa NNE 2mph /  3.2km/h 2mph /  3.2km/h 93% 0in /  0.0mm 128 W/m2
13:21 39.6 °F /  4.2 °C 37.8 °F /  3.2 °C 29.4in /  994.2hPa Calm   3mph /  4.8km/h 93% 0in /  0.0mm 148 W/m2
13:26 39.7 °F /  4.3 °C 37.9 °F /  3.3 °C 29.4in /  994.2hPa Calm   1mph /  1.6km/h 93% 0in /  0.0mm 148 W/m2
13:31 39.9 °F /  4.4 °C 38.1 °F /  3.4 °C 29.4in /  994.2hPa Calm   3mph /  4.8km/h 93% 0in /  0.0mm 120 W/m2
13:36 39.9 °F /  4.4 °C 37.8 °F /  3.2 °C 29.4in /  994.2hPa North 0.9mph /  1.4km/h 1mph /  1.6km/h 92% 0in /  0.0mm 167 W/m2
13:41 40.1 °F /  4.5 °C 37.9 °F /  3.3 °C 29.4in /  994.2hPa Calm   2mph /  3.2km/h 92% 0in /  0.0mm 148 W/m2
13:46 40.3 °F /  4.6 °C 38.1 °F /  3.4 °C 29.4in /  993.9hPa Calm   1mph /  1.6km/h 92% 0in /  0.0mm 144 W/m2
13:51 40.5 °F /  4.7 °C 38.3 °F /  3.5 °C 29.4in /  993.9hPa Calm   2mph /  3.2km/h 92% 0in /  0.0mm 132 W/m2
13:56 40.5 °F /  4.7 °C 38.3 °F /  3.5 °C 29.4in /  993.9hPa ENE 0.9mph /  1.4km/h 2mph /  3.2km/h 92% 0in /  0.0mm 123 W/m2
14:01 40.6 °F /  4.8 °C 38.3 °F /  3.5 °C 29.4in /  993.9hPa Calm   1mph /  1.6km/h 91% 0in /  0.0mm 109 W/m2
14:06 40.6 °F /  4.8 °C 38.3 °F /  3.5 °C 29.4in /  993.9hPa Calm   2mph /  3.2km/h 91% 0in /  0.0mm 98 W/m2
14:11 40.6 °F /  4.8 °C 38.3 °F /  3.5 °C 29.4in /  993.9hPa East 2mph /  3.2km/h 3mph /  4.8km/h 91% 0in /  0.0mm 93 W/m2
14:16 40.6 °F /  4.8 °C 37.9 °F /  3.3 °C 29.4in /  993.9hPa Calm   1mph /  1.6km/h 90% 0in /  0.0mm 90 W/m2
14:21 40.6 °F /  4.8 °C 38.3 °F /  3.5 °C 29.4in /  993.9hPa ENE 2mph /  3.2km/h 3mph /  4.8km/h 91% 0in /  0.0mm 86 W/m2
14:26 40.6 °F /  4.8 °C 37.9 °F /  3.3 °C 29.4in /  994.2hPa ENE 0.9mph /  1.4km/h 2mph /  3.2km/h 90% 0in /  0.0mm 105 W/m2
14:31 40.5 °F /  4.7 °C 37.8 °F /  3.2 °C 29.4in /  994.2hPa NE 2mph /  3.2km/h 3mph /  4.8km/h 90% 0in /  0.0mm 142 W/m2
14:36 40.5 °F /  4.7 °C 37.8 °F /  3.2 °C 29.4in /  994.2hPa Calm   1mph /  1.6km/h 90% 0in /  0.0mm 97 W/m2
14:41 40.5 °F /  4.7 °C 37.8 °F /  3.2 °C 29.4in /  994.2hPa Calm   1mph /  1.6km/h 90% 0in /  0.0mm 84 W/m2
14:46 40.5 °F /  4.7 °C 37.8 °F /  3.2 °C 29.4in /  994.2hPa ENE 0.9mph /  1.4km/h 1mph /  1.6km/h 90% 0in /  0.0mm 79 W/m2
14:51 40.5 °F /  4.7 °C 37.8 °F /  3.2 °C 29.4in /  994.2hPa Calm     90% 0in /  0.0mm 84 W/m2
14:56 40.6 °F /  4.8 °C 37.6 °F /  3.1 °C 29.4in /  994.2hPa ENE 2mph /  3.2km/h 2mph /  3.2km/h 89% 0in /  0.0mm 90 W/m2
15:01 40.6 °F /  4.8 °C 37.6 °F /  3.1 °C 29.4in /  994.2hPa ENE 0.9mph /  1.4km/h 2mph /  3.2km/h 89% 0in /  0.0mm 91 W/m2
15:06 40.6 °F /  4.8 °C 37.6 °F /  3.1 °C 29.4in /  994.2hPa ENE 2mph /  3.2km/h 2mph /  3.2km/h 89% 0in /  0.0mm 79 W/m2
15:11 40.6 °F /  4.8 °C 37.6 °F /  3.1 °C 29.4in /  994.2hPa Calm     89% 0in /  0.0mm 79 W/m2
15:16 40.6 °F /  4.8 °C 37.6 °F /  3.1 °C 29.4in /  994.2hPa NE 2mph /  3.2km/h 2mph /  3.2km/h 89% 0in /  0.0mm 65 W/m2
15:21 40.6 °F /  4.8 °C 37.6 °F /  3.1 °C 29.4in /  994.6hPa ENE 0.9mph /  1.4km/h 2mph /  3.2km/h 89% 0in /  0.0mm 60 W/m2
15:26 40.6 °F /  4.8 °C 37.9 °F /  3.3 °C 29.4in /  994.6hPa ENE 0.9mph /  1.4km/h 2mph /  3.2km/h 90% 0in /  0.0mm 63 W/m2
15:31 40.6 °F /  4.8 °C 37.6 °F /  3.1 °C 29.4in /  994.6hPa Calm   1mph /  1.6km/h 89% 0in /  0.0mm 56 W/m2
15:36 40.6 °F /  4.8 °C 37.6 °F /  3.1 °C 29.4in /  994.6hPa Calm     89% 0in /  0.0mm 46 W/m2
15:41 40.6 °F /  4.8 °C 37.9 °F /  3.3 °C 29.4in /  994.6hPa Calm     90% 0in /  0.0mm 35 W/m2
15:46 40.6 °F /  4.8 °C 37.6 °F /  3.1 °C 29.4in /  994.6hPa NNE 2mph /  3.2km/h 3mph /  4.8km/h 89% 0in /  0.0mm 32 W/m2
15:51 40.6 °F /  4.8 °C 37.6 °F /  3.1 °C 29.4in /  994.9hPa Calm   2mph /  3.2km/h 89% 0in /  0.0mm 30 W/m2
15:56 40.6 °F /  4.8 °C 37.6 °F /  3.1 °C 29.4in /  994.9hPa Calm     89% 0in /  0.0mm 30 W/m2
16:01 40.6 °F /  4.8 °C 37.6 °F /  3.1 °C 29.4in /  994.9hPa Calm     89% 0in /  0.0mm 37 W/m2
16:06 40.6 °F /  4.8 °C 37.9 °F /  3.3 °C 29.4in /  994.6hPa Calm   1mph /  1.6km/h 90% 0in /  0.0mm 46 W/m2
16:12 40.6 °F /  4.8 °C 38.3 °F /  3.5 °C 29.4in /  994.6hPa Calm     91% 0in /  0.0mm 28 W/m2
16:17 40.6 °F /  4.8 °C 38.3 °F /  3.5 °C 29.4in /  994.6hPa Calm   1mph /  1.6km/h 91% 0in /  0.0mm 21 W/m2
16:22 40.6 °F /  4.8 °C 38.3 °F /  3.5 °C 29.4in /  994.6hPa Calm   1mph /  1.6km/h 91% 0in /  0.0mm 18 W/m2
16:27 40.6 °F /  4.8 °C 38.3 °F /  3.5 °C 29.4in /  994.6hPa Calm     91% 0in /  0.0mm 16 W/m2
16:32 40.5 °F /  4.7 °C 38.1 °F /  3.4 °C 29.4in /  994.6hPa Calm   1mph /  1.6km/h 91% 0in /  0.0mm 18 W/m2
16:37 40.5 °F /  4.7 °C 38.1 °F /  3.4 °C 29.4in /  994.6hPa Calm     91% 0in /  0.0mm 16 W/m2
16:42 40.5 °F /  4.7 °C 38.1 °F /  3.4 °C 29.4in /  994.6hPa Calm     91% 0in /  0.0mm 12 W/m2
16:47 40.5 °F /  4.7 °C 38.3 °F /  3.5 °C 29.4in /  994.6hPa Calm     92% 0in /  0.0mm 9 W/m2
16:52 40.5 °F /  4.7 °C 38.3 °F /  3.5 °C 29.4in /  994.6hPa NE 0.9mph /  1.4km/h 1mph /  1.6km/h 92% 0in /  0.0mm 7 W/m2
16:57 40.5 °F /  4.7 °C 38.3 °F /  3.5 °C 29.4in /  994.6hPa Calm     92% 0in /  0.0mm 5 W/m2
17:02 40.5 °F /  4.7 °C 38.3 °F /  3.5 °C 29.4in /  994.6hPa Calm     92% 0in /  0.0mm 0 W/m2
17:07 40.5 °F /  4.7 °C 38.3 °F /  3.5 °C 29.4in /  994.6hPa Calm     92% 0in /  0.0mm 0 W/m2
17:12 40.3 °F /  4.6 °C 38.1 °F /  3.4 °C 29.4in /  994.6hPa Calm     92% 0in /  0.0mm 0 W/m2
17:17 40.3 °F /  4.6 °C 38.1 °F /  3.4 °C 29.4in /  994.6hPa Calm     92% 0in /  0.0mm 0 W/m2
17:22 40.3 °F /  4.6 °C 38.1 °F /  3.4 °C 29.4in /  994.6hPa Calm   2mph /  3.2km/h 92% 0in /  0.0mm 0 W/m2
17:27 40.3 °F /  4.6 °C 38.1 °F /  3.4 °C 29.4in /  994.6hPa Calm     92% 0in /  0.0mm 0 W/m2
17:32 40.3 °F /  4.6 °C 38.1 °F /  3.4 °C 29.4in /  994.6hPa Calm     92% 0in /  0.0mm 0 W/m2
17:37 40.1 °F /  4.5 °C 37.9 °F /  3.3 °C 29.4in /  994.6hPa North 0.9mph /  1.4km/h 1mph /  1.6km/h 92% 0in /  0.0mm 0 W/m2
17:42 39.9 °F /  4.4 °C 38.1 °F /  3.4 °C 29.4in /  994.6hPa WNW 0.9mph /  1.4km/h 2mph /  3.2km/h 93% 0in /  0.0mm 0 W/m2
17:47 39.9 °F /  4.4 °C 38.1 °F /  3.4 °C 29.4in /  994.9hPa WSW 2.9mph /  4.7km/h 4mph /  6.4km/h 93% 0in /  0.0mm 0 W/m2
17:52 39.9 °F /  4.4 °C 38.1 °F /  3.4 °C 29.4in /  994.9hPa West 2mph /  3.2km/h 4mph /  6.4km/h 93% 0in /  0.0mm 0 W/m2
17:57 39.7 °F /  4.3 °C 37.9 °F /  3.3 °C 29.4in /  994.9hPa West 2mph /  3.2km/h 3mph /  4.8km/h 93% 0in /  0.0mm 0 W/m2
18:02 39.7 °F /  4.3 °C 37.6 °F /  3.1 °C 29.4in /  994.9hPa West 2mph /  3.2km/h 4mph /  6.4km/h 92% 0in /  0.0mm 0 W/m2
18:07 39.7 °F /  4.3 °C 37.6 °F /  3.1 °C 29.4in /  994.9hPa West 2mph /  3.2km/h 3mph /  4.8km/h 92% 0in /  0.0mm 0 W/m2
18:12 39.7 °F /  4.3 °C 37.6 °F /  3.1 °C 29.4in /  994.9hPa West 0.9mph /  1.4km/h 3mph /  4.8km/h 92% 0in /  0.0mm 0 W/m2
18:17 39.7 °F /  4.3 °C 37.6 °F /  3.1 °C 29.4in /  994.9hPa West 2mph /  3.2km/h 3mph /  4.8km/h 92% 0in /  0.0mm 0 W/m2
18:22 39.6 °F /  4.2 °C 37.4 °F /  3 °C 29.4in /  995.3hPa WNW 2mph /  3.2km/h 3mph /  4.8km/h 92% 0in /  0.0mm 0 W/m2
18:27 39.6 °F /  4.2 °C 37.4 °F /  3 °C 29.4in /  995.3hPa West 2mph /  3.2km/h 4mph /  6.4km/h 92% 0in /  0.0mm 0 W/m2
18:32 39.6 °F /  4.2 °C 37.4 °F /  3 °C 29.4in /  995.3hPa West 2mph /  3.2km/h 6mph /  9.7km/h 92% 0in /  0.0mm 0 W/m2
18:37 39.6 °F /  4.2 °C 37.2 °F /  2.9 °C 29.4in /  995.3hPa WNW 4mph /  6.4km/h 5mph /  8km/h 91% 0in /  0.0mm 0 W/m2
18:42 39.6 °F /  4.2 °C 37.2 °F /  2.9 °C 29.4in /  995.3hPa West 2mph /  3.2km/h 3mph /  4.8km/h 91% 0in /  0.0mm 0 W/m2
18:47 39.6 °F /  4.2 °C 37.2 °F /  2.9 °C 29.4in /  995.3hPa West 4mph /  6.4km/h 6mph /  9.7km/h 91% 0in /  0.0mm 0 W/m2
18:52 39.6 °F /  4.2 °C 37.2 °F /  2.9 °C 29.4in /  995.6hPa WNW 2.9mph /  4.7km/h 7mph /  11.3km/h 91% 0in /  0.0mm 0 W/m2
18:57 39.6 °F /  4.2 °C 36.9 °F /  2.7 °C 29.4in /  995.6hPa WNW 2.9mph /  4.7km/h 4mph /  6.4km/h 90% 0in /  0.0mm 0 W/m2
19:02 39.6 °F /  4.2 °C 36.9 °F /  2.7 °C 29.4in /  995.6hPa West 6.9mph /  11.1km/h 7mph /  11.3km/h 90% 0in /  0.0mm 0 W/m2
19:07 39.6 °F /  4.2 °C 36.9 °F /  2.7 °C 29.4in /  995.6hPa West 4mph /  6.4km/h 6mph /  9.7km/h 90% 0in /  0.0mm 0 W/m2
19:12 39.6 °F /  4.2 °C 36.9 °F /  2.7 °C 29.4in /  995.6hPa West 2.9mph /  4.7km/h 4mph /  6.4km/h 90% 0in /  0.0mm 0 W/m2
19:17 39.6 °F /  4.2 °C 36.9 °F /  2.7 °C 29.4in /  995.6hPa West 0.9mph /  1.4km/h 7mph /  11.3km/h 90% 0in /  0.0mm 0 W/m2
19:22 39.6 °F /  4.2 °C 36.9 °F /  2.7 °C 29.4in /  995.6hPa WSW 6.9mph /  11.1km/h 7mph /  11.3km/h 90% 0in /  0.0mm 0 W/m2
19:27 39.4 °F /  4.1 °C 36.5 °F /  2.5 °C 29.4in /  995.9hPa WSW 2.9mph /  4.7km/h 3mph /  4.8km/h 89% 0in /  0.0mm 0 W/m2
19:32 39.4 °F /  4.1 °C 36.7 °F /  2.6 °C 29.4in /  995.9hPa WSW 7mph /  11.3km/h 7mph /  11.3km/h 90% 0in /  0.0mm 0 W/m2
19:37 39.4 °F /  4.1 °C 36.7 °F /  2.6 °C 29.4in /  995.9hPa WNW 0.9mph /  1.4km/h 4mph /  6.4km/h 90% 0in /  0.0mm 0 W/m2
19:42 39.2 °F /  4 °C 36.3 °F /  2.4 °C 29.4in /  995.9hPa West 2.9mph /  4.7km/h 4mph /  6.4km/h 89% 0in /  0.0mm 0 W/m2
19:47 39.2 °F /  4 °C 36.3 °F /  2.4 °C 29.4in /  996.3hPa West 2mph /  3.2km/h 6mph /  9.7km/h 89% 0in /  0.0mm 0 W/m2
19:52 39.2 °F /  4 °C 36.3 °F /  2.4 °C 29.4in /  996.3hPa West 4mph /  6.4km/h 6mph /  9.7km/h 89% 0in /  0.0mm 0 W/m2
19:57 39.4 °F /  4.1 °C 36.5 °F /  2.5 °C 29.4in /  996.3hPa West 4mph /  6.4km/h 7mph /  11.3km/h 89% 0in /  0.0mm 0 W/m2
20:02 39.4 °F /  4.1 °C 36.1 °F /  2.3 °C 29.4in /  996.6hPa West 4mph /  6.4km/h 8mph /  12.9km/h 88% 0in /  0.0mm 0 W/m2
20:07 39.4 °F /  4.1 °C 36.1 °F /  2.3 °C 29.4in /  996.6hPa West 2.9mph /  4.7km/h 7mph /  11.3km/h 88% 0in /  0.0mm 0 W/m2
20:12 39.4 °F /  4.1 °C 36.1 °F /  2.3 °C 29.4in /  997.0hPa WNW 0.9mph /  1.4km/h 8mph /  12.9km/h 88% 0in /  0.0mm 0 W/m2
20:17 39.4 °F /  4.1 °C 36.1 °F /  2.3 °C 29.4in /  997.0hPa West 6mph /  9.7km/h 7mph /  11.3km/h 88% 0in /  0.0mm 0 W/m2
20:22 39.2 °F /  4 °C 36 °F /  2.2 °C 29.4in /  997.0hPa West 2.9mph /  4.7km/h 4mph /  6.4km/h 88% 0in /  0.0mm 0 W/m2
20:27 39 °F /  3.9 °C 35.8 °F /  2.1 °C 29.5in /  997.3hPa WNW 2.9mph /  4.7km/h 7mph /  11.3km/h 88% 0in /  0.0mm 0 W/m2
20:32 39 °F /  3.9 °C 36.1 °F /  2.3 °C 29.5in /  997.3hPa WSW 4mph /  6.4km/h 7mph /  11.3km/h 89% 0in /  0.0mm 0 W/m2
20:37 39 °F /  3.9 °C 36.1 °F /  2.3 °C 29.5in /  997.3hPa West 2.9mph /  4.7km/h 7mph /  11.3km/h 89% 0in /  0.0mm 0 W/m2
20:42 39 °F /  3.9 °C 36.1 °F /  2.3 °C 29.5in /  997.3hPa NW 2.9mph /  4.7km/h 6mph /  9.7km/h 89% 0in /  0.0mm 0 W/m2
20:47 39 °F /  3.9 °C 36.1 °F /  2.3 °C 29.5in /  997.3hPa West 2.9mph /  4.7km/h 6mph /  9.7km/h 89% 0in /  0.0mm 0 W/m2
20:52 38.8 °F /  3.8 °C 36 °F /  2.2 °C 29.5in /  997.6hPa West 6.9mph /  11.1km/h 7mph /  11.3km/h 89% 0in /  0.0mm 0 W/m2
20:57 38.8 °F /  3.8 °C 36 °F /  2.2 °C 29.5in /  997.6hPa West 4mph /  6.4km/h 6mph /  9.7km/h 89% 0in /  0.0mm 0 W/m2
21:02 38.8 °F /  3.8 °C 36 °F /  2.2 °C 29.5in /  997.6hPa WNW 4mph /  6.4km/h 7mph /  11.3km/h 89% 0in /  0.0mm 0 W/m2
21:07 38.8 °F /  3.8 °C 36 °F /  2.2 °C 29.5in /  997.6hPa West 2mph /  3.2km/h 4mph /  6.4km/h 89% 0in /  0.0mm 0 W/m2
21:12 38.8 °F /  3.8 °C 36 °F /  2.2 °C 29.5in /  997.6hPa WSW 4mph /  6.4km/h 8mph /  12.9km/h 89% 0in /  0.0mm 0 W/m2
21:17 38.8 °F /  3.8 °C 36 °F /  2.2 °C 29.5in /  997.6hPa WNW 2.9mph /  4.7km/h 8mph /  12.9km/h 89% 0in /  0.0mm 0 W/m2
21:22 38.8 °F /  3.8 °C 36 °F /  2.2 °C 29.5in /  997.6hPa West 2mph /  3.2km/h 6mph /  9.7km/h 89% 0in /  0.0mm 0 W/m2
21:27 38.8 °F /  3.8 °C 36 °F /  2.2 °C 29.5in /  997.3hPa West 2mph /  3.2km/h 4mph /  6.4km/h 89% 0in /  0.0mm 0 W/m2
21:32 38.7 °F /  3.7 °C 35.8 °F /  2.1 °C 29.5in /  997.3hPa WNW 2.9mph /  4.7km/h 5mph /  8km/h 89% 0in /  0.0mm 0 W/m2
21:37 38.7 °F /  3.7 °C 35.8 °F /  2.1 °C 29.5in /  997.3hPa WNW 2mph /  3.2km/h 6mph /  9.7km/h 89% 0in /  0.0mm 0 W/m2
21:42 38.7 °F /  3.7 °C 35.8 °F /  2.1 °C 29.5in /  997.3hPa WNW 2mph /  3.2km/h 7mph /  11.3km/h 89% 0in /  0.0mm 0 W/m2
21:47 38.7 °F /  3.7 °C 35.8 °F /  2.1 °C 29.5in /  997.3hPa West 4mph /  6.4km/h 4mph /  6.4km/h 89% 0in /  0.0mm 0 W/m2
21:52 38.7 °F /  3.7 °C 35.8 °F /  2.1 °C 29.5in /  997.3hPa WSW 2mph /  3.2km/h 4mph /  6.4km/h 89% 0in /  0.0mm 0 W/m2
21:57 38.7 °F /  3.7 °C 36 °F /  2.2 °C 29.5in /  997.3hPa WNW 4mph /  6.4km/h 6mph /  9.7km/h 90% 0in /  0.0mm 0 W/m2
22:02 38.5 °F /  3.6 °C 35.8 °F /  2.1 °C 29.5in /  997.3hPa WNW 2.9mph /  4.7km/h 6mph /  9.7km/h 90% 0in /  0.0mm 0 W/m2
22:07 38.5 °F /  3.6 °C 35.8 °F /  2.1 °C 29.5in /  997.3hPa NW 6mph /  9.7km/h 9mph /  14.5km/h 90% 0in /  0.0mm 0 W/m2
22:13 38.5 °F /  3.6 °C 35.6 °F /  2 °C 29.5in /  997.3hPa WNW 2.9mph /  4.7km/h 8mph /  12.9km/h 89% 0in /  0.0mm 0 W/m2
22:18 38.5 °F /  3.6 °C 35.6 °F /  2 °C 29.5in /  997.3hPa West 2mph /  3.2km/h 7mph /  11.3km/h 89% 0in /  0.0mm 0 W/m2
22:23 38.5 °F /  3.6 °C 35.6 °F /  2 °C 29.5in /  997.6hPa WNW 2mph /  3.2km/h 7mph /  11.3km/h 89% 0in /  0.0mm 0 W/m2
22:28 38.5 °F /  3.6 °C 35.6 °F /  2 °C 29.5in /  997.6hPa West 2mph /  3.2km/h 7mph /  11.3km/h 89% 0in /  0.0mm 0 W/m2
22:33 38.5 °F /  3.6 °C 35.6 °F /  2 °C 29.5in /  997.6hPa WNW 2mph /  3.2km/h 4mph /  6.4km/h 89% 0in /  0.0mm 0 W/m2
22:38 38.5 °F /  3.6 °C 35.6 °F /  2 °C 29.5in /  997.6hPa WNW 2mph /  3.2km/h 6mph /  9.7km/h 89% 0in /  0.0mm 0 W/m2
22:43 38.5 °F /  3.6 °C 35.6 °F /  2 °C 29.5in /  997.6hPa WNW 0.9mph /  1.4km/h 4mph /  6.4km/h 89% 0in /  0.0mm 0 W/m2
22:48 38.5 °F /  3.6 °C 35.6 °F /  2 °C 29.5in /  997.6hPa NW 4.9mph /  7.9km/h 7mph /  11.3km/h 89% 0in /  0.0mm 0 W/m2
22:53 38.5 °F /  3.6 °C 35.6 °F /  2 °C 29.5in /  997.6hPa WNW 6.9mph /  11.1km/h 7mph /  11.3km/h 89% 0in /  0.0mm 0 W/m2
22:58 38.5 °F /  3.6 °C 35.6 °F /  2 °C 29.5in /  998.0hPa WNW 2.9mph /  4.7km/h 8mph /  12.9km/h 89% 0in /  0.0mm 0 W/m2
23:03 38.5 °F /  3.6 °C 35.6 °F /  2 °C 29.5in /  998.0hPa West 2.9mph /  4.7km/h 7mph /  11.3km/h 89% 0in /  0.0mm 0 W/m2
23:08 38.5 °F /  3.6 °C 35.8 °F /  2.1 °C 29.5in /  998.0hPa West 2.9mph /  4.7km/h 5mph /  8km/h 90% 0in /  0.0mm 0 W/m2
23:13 38.3 °F /  3.5 °C 35.6 °F /  2 °C 29.5in /  998.0hPa WNW 2.9mph /  4.7km/h 3mph /  4.8km/h 90% 0in /  0.0mm 0 W/m2
23:18 38.3 °F /  3.5 °C 35.6 °F /  2 °C 29.5in /  998.0hPa West 2mph /  3.2km/h 3mph /  4.8km/h 90% 0in /  0.0mm 0 W/m2
23:23 38.1 °F /  3.4 °C 35.4 °F /  1.9 °C 29.5in /  998.3hPa West 2.9mph /  4.7km/h 6mph /  9.7km/h 90% 0in /  0.0mm 0 W/m2
23:28 38.1 °F /  3.4 °C 35.4 °F /  1.9 °C 29.5in /  998.3hPa West 4mph /  6.4km/h 8mph /  12.9km/h 90% 0in /  0.0mm 0 W/m2
23:33 38.1 °F /  3.4 °C 35.4 °F /  1.9 °C 29.5in /  998.3hPa WSW 0.9mph /  1.4km/h 7mph /  11.3km/h 90% 0in /  0.0mm 0 W/m2
23:38 38.1 °F /  3.4 °C 35.4 °F /  1.9 °C 29.5in /  998.3hPa West 4mph /  6.4km/h 8mph /  12.9km/h 90% 0in /  0.0mm 0 W/m2
23:43 38.1 °F /  3.4 °C 35.4 °F /  1.9 °C 29.5in /  998.3hPa West 2mph /  3.2km/h 7mph /  11.3km/h 90% 0in /  0.0mm 0 W/m2
23:48 38.1 °F /  3.4 °C 35.4 °F /  1.9 °C 29.5in /  998.3hPa West 4mph /  6.4km/h 7mph /  11.3km/h 90% 0in /  0.0mm 0 W/m2
23:53 38.1 °F /  3.4 °C 35.2 °F /  1.8 °C 29.5in /  998.3hPa SW 2mph /  3.2km/h 8mph /  12.9km/h 89% 0in /  0.0mm 0 W/m2
23:58 38.1 °F /  3.4 °C 35.2 °F /  1.8 °C 29.5in /  998.3hPa West 2.9mph /  4.7km/h 7mph /  11.3km/h 89% 0in /  0.0mm 0 W/m2
Juneau County Weather
Compliments of Weather Underground - 4 mb